Currently 56°F in Simi Valley, California, USA
56°F
70°F / 56°F
4 mph NW
0.00"
Friday, November 17, 2017 8:43 PM PST

Simi Valley, California Weather Summary
Last 36 Hours

Temperature Winds Hourly Humidity Dewpoint
Time Report Norm Report Norm Max Gusts Precip. Rpt. Norm Rpt. Norm Pressure
1Fri 08:43 PM  55.6°F  58°F  4 mph NW  4 mph  6 mph  0.00"  83%  60%  50°F  43°F  30.05"
3Fri 08:42 PM  55.6°F  58°F  3 mph NW  4 mph  6 mph  ----  83%  60%  50°F  43°F  30.05"
Fri 08:00 PM  56.7°F  58°F  1 mph N  4 mph  7 mph  0.00"  82%  60%  51°F  44°F  30.03"
Fri 07:00 PM  59.8°F  60°F  4 mph N  4 mph  6 mph  0.00"  79%  59%  53°F  45°F  30.02"
Fri 06:00 PM  62.1°F  62°F  calm  3 mph  6 mph  0.00"  78%  57%  55°F  46°F  30.01"
Fri 05:00 PM  64.3°F  64°F  4 mph W  5 mph  10 mph  0.00"  77%  53%  57°F  46°F  29.99"
Fri 04:00 PM  66.4°F  67°F  4 mph W  6 mph  14 mph  0.00"  72%  49%  57°F  47°F  29.99"
Fri 03:00 PM  68.3°F  69°F  6 mph W  7 mph  14 mph  0.00"  68%  46%  57°F  46°F  29.98"
Fri 02:00 PM  68.7°F  70°F  10 mph SW  6 mph  15 mph  0.00"  68%  43%  57°F  46°F  29.99"
2Fri 01:17 PM  69.8°F  70°F  10 mph W  7 mph  15 mph  ----  66%  42%  58°F  46°F  30.00"
Fri 01:00 PM  69.5°F  70°F  9 mph SW  6 mph  13 mph  0.00"  66%  42%  57°F  45°F  30.00"
Fri 12:00 PM  67.3°F  69°F  calm  5 mph  12 mph  0.00"  71%  44%  57°F  45°F  30.02"
Fri 11:00 AM  67.0°F  67°F  5 mph SW  6 mph  11 mph  0.00"  71%  47%  57°F  46°F  30.05"
Fri 10:00 AM  63.3°F  65°F  calm  5 mph  5 mph  0.00"  82%  51%  57°F  46°F  30.06"
Fri 09:00 AM  61.2°F  61°F  calm  5 mph  3 mph  0.00"  83%  58%  56°F  46°F  30.06"
Fri 08:00 AM  58.6°F  56°F  calm  4 mph  6 mph  0.00"  83%  62%  53°F  43°F  30.04"
Fri 07:00 AM  57.3°F  54°F  2 mph NW  5 mph  5 mph  0.00"  83%  63%  52°F  41°F  30.03"
Fri 06:00 AM  57.6°F  54°F  calm  4 mph  4 mph  0.00"  81%  63%  52°F  41°F  30.00"
Fri 05:00 AM  58.1°F  54°F  2 mph NW  4 mph  5 mph  0.00"  80%  62%  52°F  41°F  29.98"
Fri 04:00 AM  58.4°F  55°F  calm  5 mph  5 mph  0.00"  80%  62%  52°F  41°F  29.98"
Fri 03:00 AM  58.8°F  55°F  calm  4 mph  6 mph  0.00"  79%  62%  52°F  41°F  29.97"
Fri 02:00 AM  59.0°F  55°F  calm  4 mph  5 mph  0.00"  78%  62%  52°F  41°F  29.97"
Fri 01:00 AM  59.4°F  55°F  2 mph N  4 mph  6 mph  0.00"  77%  61%  52°F  42°F  29.97"
Fri 12:00 AM  59.1°F  56°F  3 mph N  4 mph  6 mph  0.00"  78%  61%  52°F  42°F  29.96"
Thu 11:00 PM  59.4°F  57°F  1 mph NE  5 mph  8 mph  0.00"  77%  60%  52°F  42°F  29.96"
Thu 10:00 PM  59.8°F  57°F  5 mph NW  5 mph  8 mph  0.00"  78%  59%  53°F  42°F  29.97"
Thu 09:00 PM  60.4°F  58°F  5 mph NW  5 mph  9 mph  0.00"  78%  58%  53°F  43°F  29.97"
Thu 08:00 PM  60.9°F  59°F  4 mph SE  4 mph  8 mph  0.00"  77%  58%  53°F  43°F  29.95"
Thu 07:00 PM  62.5°F  60°F  calm  4 mph  5 mph  0.00"  74%  57%  54°F  44°F  29.95"
Thu 06:00 PM  63.3°F  62°F  calm  3 mph  7 mph  0.00"  71%  55%  53°F  45°F  29.95"
Thu 05:00 PM  65.9°F  64°F  4 mph W  5 mph  14 mph  0.00"  61%  52%  52°F  46°F  29.94"
Thu 04:00 PM  68.4°F  67°F  6 mph W  6 mph  12 mph  0.00"  54%  48%  50°F  46°F  29.93"
Thu 03:00 PM  71.2°F  69°F  4 mph W  7 mph  11 mph  0.00"  47%  45%  49°F  46°F  29.91"
Thu 02:00 PM  72.7°F  70°F  4 mph W  6 mph  10 mph  0.00"  42%  42%  48°F  46°F  29.91"
Thu 01:00 PM  72.9°F  70°F  6 mph SW  6 mph  11 mph  0.00"  43%  42%  49°F  45°F  29.93"
Thu 12:00 PM  72.1°F  69°F  7 mph SW  5 mph  14 mph  0.00"  43%  43%  48°F  45°F  29.95"
Thu 11:00 AM  72.3°F  68°F  4 mph W  5 mph  10 mph  0.00"  44%  46%  48°F  45°F  29.97"
Thu 10:00 AM  68.5°F  65°F  calm  5 mph  none  0.00"  56%  51%  52°F  46°F  29.97"
Thu 09:00 AM  63.6°F  61°F  calm  5 mph  6 mph  0.00"  63%  57%  50°F  45°F  29.97"

  1. Current weather data. No green row appears if the current weather data is also the high or low for the current day.
  2. High temperature for the current day.
  3. Low temperature for the current day.

The Simi Valley, California weather pages are a service of WeatherCurrents.
Copyright ©Fri Nov 17 20:44:55 PST 2017  WeatherCurrents. All rights reserved. - Submit questions and comments - Privacy Policy

This page automatically refreshes every 10 minutes.